Newport (Isle of Wight), United Kingdom
Current Conditions -  °F | °C
As of 1:50 PM on Friday 24 Oct 2014 (Local Time) from EGHI Reporting Station
Broken Clouds Broken Clouds  
Wind Chill: 16°   Ceiling: 1600
Heat Index: 16°   Visibility: 6mi
Dew Point: 13°   Wind: 8mph
Humidity: 82%   Direction: 230°SW
Pressure: 29.94"   Gusts: NA
Location:  50.7°N, 1.29°W
Report Text: EGHI 241250Z 23007KT 9999 FEW012 BKN016 16/13 Q1014
Loading
Personal Weather Stations






























Interactive Weather Map
Tropical Storm Tracking
New forecast layout! Learn more

10-Day Weather Forecast

Advertisements
Track Severe Weather on mobile